Flushing, NY (11354)

4:52 PM EST on January 26, 2015 (GMT -0500)
Meadow Lake | Change Station
CLOSE
Current Station
Personal Weather Station
Location: New York, NY
Elevation: -10 ft
Nearby Weather Stations

Elev -10 ft 40.73 °N, 73.84 °W | Updated 21 minutes ago

Snow
Snow Freezing Fog
24.9 °F
Feels Like 15 °F
N
10.1
Wind Variable Wind from ENE
Gusts 17.0 mph

Today
High -- | Low -- °F
--% Chance of Precip.
Yesterday
High -- | Low -- °F
Precip. -- in
7:10 AM 5:05 PM
Waxing Crescent, 47% visible
Pressure 29.85 in
Visibility 0.2 miles
Clouds
Windchill 15 °F
Dew Point 23 °F
Humidity 92%
Rainfall -999.00 in
Snow Depth Not available.
UV Not available.
Pollen .10 out of 12
Air Quality Not available.
Flu Activity Not available.
METAR KLGA 262051Z 03013G19KT 1/4SM R04/2200V2400FT SN FZFG VV006 M04/M06 A2985 RMK AO2 TWR VIS 1/4 SLP107 SNINCR 2/3 P0008 60013 T10441056 58016 $

More Conditions Fewer Conditions

Pressure 29.85 in
Visibility 0.2 miles
Clouds
Windchill 15 °F
Dew Point 23 °F
Humidity 92%
Rainfall -999.00 in
Snow Depth Not available.
UV Not available.
Pollen .10 out of 12
Air Quality Not available.
Flu Activity Not available.
METAR KLGA 262051Z 03013G19KT 1/4SM R04/2200V2400FT SN FZFG VV006 M04/M06 A2985 RMK AO2 TWR VIS 1/4 SLP107 SNINCR 2/3 P0008 60013 T10441056 58016 $

More Conditions Fewer Conditions

10-Day Weather Forecast

Almanac

Astronomy

Jan. 26, 2015 Rise Set
Actual Time
Civil Twilight
Nautical Twilight
Astronomical Twilight
Moon
Length of Visible Light
Length of Day
Tomorrow will be .
, % of the Moon is Illuminated

Today's Extremes

State Highs State Lows

Community

WunderPhotos

Upload Photos

1,790,370 photos uploaded!

WunderBlogs® & News

Nearby

Air Quality

  Air Quality AQ Index Pollutant
Not available.

Snow Depth

Station Depth Elevation

Earthquake Activity

City Distance Mag. Time & Date
Minimum magnitude displayed is 2.5.

Coastal Water Temperatures

Place Temperature

Nearby Weather Stations